createdAt,value
2023-04-02T00:00:29.660Z,87.10
2023-04-02T00:03:01.463Z,87.30
2023-04-02T00:05:34.617Z,86.70
2023-04-02T00:08:18.250Z,86.50
2023-04-02T00:10:48.286Z,85.80
2023-04-02T00:13:15.385Z,85.50
2023-04-02T00:15:47.556Z,85.60
2023-04-02T00:18:18.380Z,85.40
2023-04-02T00:20:51.560Z,84.20
2023-04-02T00:23:19.818Z,84.20
2023-04-02T00:25:47.332Z,83.80
2023-04-02T00:28:23.342Z,83.50
2023-04-02T00:31:00.308Z,83.00
2023-04-02T00:33:31.577Z,82.90
2023-04-02T00:35:58.417Z,82.70
2023-04-02T00:38:28.174Z,82.20
2023-04-02T00:40:58.393Z,82.30
2023-04-02T00:43:30.867Z,82.40
2023-04-02T00:46:03.048Z,82.00
2023-04-02T00:48:32.919Z,81.80
2023-04-02T00:51:34.759Z,81.30
2023-04-02T00:54:05.173Z,81.10
2023-04-02T00:56:39.138Z,80.70
2023-04-02T00:59:36.842Z,80.80
2023-04-02T01:02:19.986Z,80.20
2023-04-02T01:04:58.660Z,79.90
2023-04-02T01:07:48.597Z,79.60
2023-04-02T01:10:24.218Z,79.80
2023-04-02T01:13:10.153Z,79.50
2023-04-02T01:16:04.433Z,79.40
2023-04-02T01:18:50.368Z,78.90
2023-04-02T01:21:28.235Z,78.20
2023-04-02T01:24:05.597Z,78.70
2023-04-02T01:26:48.026Z,78.30
2023-04-02T01:29:22.447Z,78.20
2023-04-02T01:31:51.688Z,78.30
2023-04-02T01:34:22.961Z,78.40
2023-04-02T01:37:06.055Z,77.80
2023-04-02T01:40:09.868Z,77.80
2023-04-02T01:42:49.050Z,77.80
2023-04-02T01:45:17.408Z,78.00
2023-04-02T01:47:44.899Z,77.20
2023-04-02T01:50:32.099Z,77.30
2023-04-02T01:53:05.219Z,77.70
2023-04-02T01:55:35.361Z,77.50
2023-04-02T01:58:03.927Z,77.30
2023-04-02T02:00:32.498Z,77.40
2023-04-02T02:03:01.337Z,77.50
2023-04-02T02:05:29.227Z,76.90
2023-04-02T02:07:57.942Z,77.40
2023-04-02T02:10:37.157Z,76.90
2023-04-02T02:13:04.189Z,77.40
2023-04-02T02:15:33.868Z,77.40
2023-04-02T02:18:05.923Z,77.70
2023-04-02T02:20:33.588Z,77.80
2023-04-02T02:23:01.446Z,78.10
2023-04-02T02:25:30.940Z,78.40
2023-04-02T02:28:16.307Z,78.60
2023-04-02T02:31:02.018Z,78.80
2023-04-02T02:33:34.162Z,79.10
2023-04-02T02:36:07.285Z,79.20
2023-04-02T02:38:33.989Z,79.40
2023-04-02T02:41:08.703Z,79.60
2023-04-02T02:43:38.613Z,80.00
2023-04-02T02:46:06.183Z,80.10
2023-04-02T02:48:37.487Z,80.40
2023-04-02T02:51:09.260Z,80.50
2023-04-02T02:53:46.538Z,80.40
2023-04-02T02:56:13.643Z,80.80
2023-04-02T02:58:40.909Z,81.20
2023-04-02T03:01:07.929Z,81.60
2023-04-02T03:03:35.488Z,81.80
2023-04-02T03:06:06.596Z,82.00
2023-04-02T03:08:37.158Z,81.70
2023-04-02T03:11:19.689Z,81.90
2023-04-02T03:13:50.585Z,82.00
2023-04-02T03:16:28.464Z,81.80
2023-04-02T03:19:01.111Z,82.20
2023-04-02T03:21:44.093Z,82.30
2023-04-02T03:24:11.015Z,82.30
2023-04-02T03:26:39.942Z,82.70
2023-04-02T03:29:13.033Z,82.60
2023-04-02T03:31:44.328Z,82.80
2023-04-02T03:34:18.803Z,82.70
2023-04-02T03:36:57.953Z,82.60
2023-04-02T03:39:39.156Z,82.70
2023-04-02T03:42:14.364Z,83.00
2023-04-02T03:44:50.430Z,82.70
2023-04-02T03:47:29.888Z,82.60
2023-04-02T03:50:03.880Z,82.60
2023-04-02T03:52:31.227Z,82.40
2023-04-02T03:55:01.233Z,82.30
2023-04-02T03:57:44.040Z,82.30
2023-04-02T04:00:16.799Z,82.30
2023-04-02T04:03:02.700Z,82.30
2023-04-02T04:05:34.778Z,82.20
2023-04-02T04:08:15.757Z,81.90
2023-04-02T04:10:43.759Z,81.70
2023-04-02T04:13:17.754Z,81.50
2023-04-02T04:16:13.520Z,81.30
2023-04-02T04:18:47.712Z,80.80
2023-04-02T04:21:37.467Z,79.20
2023-04-02T04:24:05.911Z,77.10
2023-04-02T04:26:44.447Z,75.40
2023-04-02T04:29:15.634Z,72.90
2023-04-02T04:31:47.352Z,72.00
2023-04-02T04:34:16.518Z,71.20
2023-04-02T04:36:54.251Z,70.20
2023-04-02T04:39:29.616Z,69.70
2023-04-02T04:41:58.704Z,68.70
2023-04-02T04:44:45.854Z,67.30
2023-04-02T04:47:18.294Z,67.10
2023-04-02T04:49:47.721Z,66.00
2023-04-02T04:52:18.009Z,65.80
2023-04-02T04:54:46.002Z,64.00
2023-04-02T04:57:36.029Z,62.50
2023-04-02T05:00:06.255Z,62.00
2023-04-02T05:02:36.228Z,61.80
2023-04-02T05:05:04.110Z,60.40
2023-04-02T05:07:32.689Z,61.40
2023-04-02T05:10:16.272Z,60.90
2023-04-02T05:12:46.043Z,60.80
2023-04-02T05:15:31.372Z,59.50
2023-04-02T05:18:07.251Z,58.80
2023-04-02T05:20:54.322Z,58.20
2023-04-02T05:23:34.472Z,58.70
2023-04-02T05:26:11.411Z,57.40
2023-04-02T05:28:38.090Z,56.60
2023-04-02T05:31:32.930Z,56.10
2023-04-02T05:33:59.730Z,56.30
2023-04-02T05:36:27.994Z,54.90
2023-04-02T05:38:56.540Z,55.00
2023-04-02T05:41:43.796Z,53.90
2023-04-02T05:44:10.754Z,54.30
2023-04-02T05:46:41.820Z,52.40
2023-04-02T05:49:14.103Z,52.70
2023-04-02T05:51:45.774Z,52.40
2023-04-02T05:54:17.353Z,53.00
2023-04-02T05:56:47.294Z,53.30
2023-04-02T05:59:19.572Z,52.90
2023-04-02T06:02:07.336Z,53.70
2023-04-02T06:04:37.133Z,52.40
2023-04-02T06:07:03.859Z,51.20
2023-04-02T06:09:34.171Z,51.10
2023-04-02T06:12:18.131Z,50.90
2023-04-02T06:14:46.795Z,51.50
2023-04-02T06:17:15.189Z,51.10
2023-04-02T06:19:42.046Z,50.90
2023-04-02T06:22:17.827Z,51.10
2023-04-02T06:24:45.774Z,50.00
2023-04-02T06:27:14.194Z,50.10
2023-04-02T06:29:44.703Z,49.40
2023-04-02T06:32:12.633Z,49.10
2023-04-02T06:34:40.982Z,50.70
2023-04-02T06:37:31.692Z,50.70
2023-04-02T06:39:59.195Z,50.20
2023-04-02T06:42:37.320Z,49.10
2023-04-02T06:45:04.621Z,47.50
2023-04-02T06:47:35.952Z,47.00
2023-04-02T06:50:18.783Z,47.40
2023-04-02T06:52:47.401Z,47.80
2023-04-02T06:55:20.485Z,48.80
2023-04-02T06:57:48.395Z,47.30
2023-04-02T07:00:28.154Z,47.10
2023-04-02T07:02:58.289Z,46.00
2023-04-02T07:05:25.160Z,45.90
2023-04-02T07:07:51.998Z,46.40
2023-04-02T07:10:20.338Z,45.70
2023-04-02T07:12:47.350Z,46.30
2023-04-02T07:15:19.144Z,45.30
2023-04-02T07:17:48.157Z,44.30
2023-04-02T07:20:34.209Z,44.30
2023-04-02T07:23:00.940Z,43.90
2023-04-02T07:25:27.770Z,43.40
2023-04-02T07:27:55.143Z,43.70
2023-04-02T07:30:22.002Z,43.20
2023-04-02T07:32:48.893Z,43.60
2023-04-02T07:35:15.768Z,43.40
2023-04-02T07:37:42.508Z,44.00
2023-04-02T07:40:15.969Z,43.00
2023-04-02T07:42:42.845Z,44.20
2023-04-02T07:45:09.890Z,44.00
2023-04-02T07:47:36.611Z,43.40
2023-04-02T07:50:03.893Z,41.80
2023-04-02T07:52:31.354Z,41.40
2023-04-02T07:54:58.086Z,43.20
2023-04-02T07:57:24.856Z,44.00
2023-04-02T07:59:51.616Z,43.80
2023-04-02T08:02:23.921Z,44.50
2023-04-02T08:04:51.357Z,44.50
2023-04-02T08:07:19.151Z,43.80
2023-04-02T08:09:45.969Z,42.60
2023-04-02T08:12:13.492Z,40.80
2023-04-02T08:14:40.220Z,40.40
2023-04-02T08:17:07.010Z,41.00
2023-04-02T08:19:41.557Z,41.60
2023-04-02T08:22:18.662Z,41.50
2023-04-02T08:24:45.488Z,39.60
2023-04-02T08:27:15.045Z,40.50
2023-04-02T08:29:41.857Z,42.10
2023-04-02T08:32:11.400Z,41.40
2023-04-02T08:34:38.161Z,39.60
2023-04-02T08:37:04.850Z,40.40
2023-04-02T08:39:35.233Z,40.10
2023-04-02T08:42:17.388Z,40.20
2023-04-02T08:44:54.359Z,40.60
2023-04-02T08:47:25.923Z,40.10
2023-04-02T08:49:52.663Z,39.50
2023-04-02T08:52:22.144Z,40.00
2023-04-02T08:54:49.557Z,39.50
2023-04-02T08:57:19.485Z,38.70
2023-04-02T08:59:48.031Z,38.40
2023-04-02T09:02:17.589Z,38.30
2023-04-02T09:04:44.423Z,36.80
2023-04-02T09:07:16.701Z,37.00
2023-04-02T09:09:45.064Z,36.40
2023-04-02T09:12:18.415Z,36.30
2023-04-02T09:14:45.239Z,36.70
2023-04-02T09:17:22.024Z,36.80
2023-04-02T09:20:01.624Z,36.80
2023-04-02T09:22:31.688Z,36.50
2023-04-02T09:25:00.054Z,35.70
2023-04-02T09:27:28.733Z,35.50
2023-04-02T09:29:57.769Z,36.10
2023-04-02T09:32:35.239Z,36.20
2023-04-02T09:35:14.977Z,36.30
2023-04-02T09:38:09.646Z,36.50
2023-04-02T09:40:46.845Z,36.30
2023-04-02T09:43:18.104Z,34.60
2023-04-02T09:45:54.792Z,34.00
2023-04-02T09:48:26.637Z,34.80
2023-04-02T09:51:04.862Z,35.20
2023-04-02T09:53:34.922Z,35.50
2023-04-02T09:56:12.384Z,35.70
2023-04-02T09:58:40.359Z,35.30
2023-04-02T10:01:24.467Z,35.10
2023-04-02T10:03:52.051Z,35.50
2023-04-02T10:06:18.954Z,34.70
2023-04-02T10:08:45.734Z,35.00
2023-04-02T10:11:14.072Z,35.30
2023-04-02T10:13:41.041Z,34.60
2023-04-02T10:16:10.904Z,34.30
2023-04-02T10:18:49.667Z,33.30
2023-04-02T10:21:18.394Z,33.10
2023-04-02T10:23:45.429Z,32.80
2023-04-02T10:26:12.181Z,34.30
2023-04-02T10:28:42.599Z,33.60
2023-04-02T10:31:17.529Z,33.50
2023-04-02T10:33:47.180Z,34.50
2023-04-02T10:36:20.078Z,34.10
2023-04-02T10:39:02.831Z,34.10
2023-04-02T10:41:32.603Z,34.70
2023-04-02T10:44:03.635Z,35.80
2023-04-02T10:46:39.755Z,36.50
2023-04-02T10:49:30.620Z,36.50
2023-04-02T10:52:23.774Z,37.00
2023-04-02T10:54:51.449Z,35.40
2023-04-02T10:57:36.898Z,33.50
2023-04-02T11:00:18.885Z,34.10
2023-04-02T11:03:00.715Z,33.80
2023-04-02T11:05:46.516Z,34.30
2023-04-02T11:08:31.813Z,34.20
2023-04-02T11:11:04.820Z,34.50
2023-04-02T11:13:36.124Z,32.60
2023-04-02T11:16:03.789Z,32.50
2023-04-02T11:18:36.727Z,32.80
2023-04-02T11:21:05.068Z,33.30
2023-04-02T11:23:33.501Z,34.30
2023-04-02T11:26:28.493Z,35.20
2023-04-02T11:29:04.922Z,35.10
2023-04-02T11:31:31.745Z,32.20
2023-04-02T11:33:58.520Z,32.20
2023-04-02T11:36:44.179Z,32.40
2023-04-02T11:39:17.524Z,32.40
2023-04-02T11:42:01.415Z,32.90
2023-04-02T11:44:28.184Z,32.50
2023-04-02T11:47:14.740Z,32.10
2023-04-02T11:50:01.474Z,32.40
2023-04-02T11:52:28.490Z,32.50
2023-04-02T11:54:59.841Z,31.70
2023-04-02T11:57:36.461Z,31.70
2023-04-02T12:00:14.375Z,31.80
2023-04-02T12:03:06.915Z,31.60
2023-04-02T12:05:39.442Z,32.00
2023-04-02T12:08:22.634Z,31.90
2023-04-02T12:10:54.889Z,31.10
2023-04-02T12:13:40.068Z,31.90
2023-04-02T12:16:08.338Z,31.80
2023-04-02T12:18:35.489Z,31.20
2023-04-02T12:21:02.531Z,31.50
2023-04-02T12:23:31.359Z,31.90
2023-04-02T12:25:59.074Z,31.50
2023-04-02T12:28:28.987Z,32.00
2023-04-02T12:31:25.385Z,32.00
2023-04-02T12:33:52.928Z,31.70
2023-04-02T12:36:20.882Z,31.80
2023-04-02T12:38:47.787Z,31.40
2023-04-02T12:41:21.544Z,31.50
2023-04-02T12:43:56.298Z,31.60
2023-04-02T12:46:25.921Z,32.00
2023-04-02T12:48:54.240Z,32.10
2023-04-02T12:51:21.365Z,32.20
2023-04-02T12:53:50.538Z,32.40
2023-04-02T12:56:21.719Z,31.60
2023-04-02T12:58:54.685Z,31.70
2023-04-02T13:01:27.659Z,31.70
2023-04-02T13:04:01.637Z,32.00
2023-04-02T13:06:30.671Z,31.60
2023-04-02T13:08:57.811Z,32.20
2023-04-02T13:11:33.619Z,31.90
2023-04-02T13:14:01.838Z,32.00
2023-04-02T13:16:34.003Z,32.20
2023-04-02T13:19:22.187Z,32.10
2023-04-02T13:21:49.442Z,32.10
2023-04-02T13:24:16.983Z,32.10
2023-04-02T13:26:43.852Z,32.30
2023-04-02T13:29:18.714Z,32.10
2023-04-02T13:31:45.513Z,33.30
2023-04-02T13:34:12.234Z,33.40
2023-04-02T13:36:39.048Z,33.30
2023-04-02T13:39:06.056Z,33.70
2023-04-02T13:41:55.846Z,37.70
2023-04-02T13:44:22.508Z,40.50
2023-04-02T13:46:49.596Z,43.00
2023-04-02T13:49:16.742Z,44.40
2023-04-02T13:51:45.837Z,46.00
2023-04-02T13:54:16.113Z,45.80
2023-04-02T13:56:42.936Z,45.90
2023-04-02T13:59:09.685Z,46.80
2023-04-02T14:01:37.520Z,47.00
2023-04-02T14:04:05.736Z,47.40
2023-04-02T14:06:32.489Z,47.60
2023-04-02T14:09:10.993Z,47.80
2023-04-02T14:11:40.781Z,47.10
2023-04-02T14:14:26.065Z,47.00
2023-04-02T14:17:01.479Z,46.80
2023-04-02T14:19:31.767Z,46.80
2023-04-02T14:21:58.487Z,46.80
2023-04-02T14:24:40.661Z,47.10
2023-04-02T14:27:19.551Z,47.40
2023-04-02T14:29:54.517Z,47.40
2023-04-02T14:32:26.091Z,46.90
2023-04-02T14:35:11.867Z,47.00
2023-04-02T14:37:57.510Z,48.00
2023-04-02T14:40:31.766Z,46.90
2023-04-02T14:43:01.910Z,46.70
2023-04-02T14:45:28.548Z,46.60
2023-04-02T14:47:59.772Z,46.90
2023-04-02T14:50:29.061Z,46.90
2023-04-02T14:52:58.283Z,47.40
2023-04-02T14:55:33.028Z,47.50
2023-04-02T14:58:01.512Z,47.80
2023-04-02T15:00:41.353Z,48.50
2023-04-02T15:03:15.644Z,49.30
2023-04-02T15:05:45.418Z,52.70
2023-04-02T15:08:20.052Z,54.50
2023-04-02T15:11:02.838Z,54.60
2023-04-02T15:13:39.049Z,53.70
2023-04-02T15:16:11.451Z,54.30
2023-04-02T15:18:41.298Z,54.40
2023-04-02T15:21:20.400Z,54.60
2023-04-02T15:24:06.174Z,54.00
2023-04-02T15:26:51.666Z,54.90
2023-04-02T15:29:36.509Z,55.50
2023-04-02T15:32:12.574Z,54.50
2023-04-02T15:34:41.663Z,55.10
2023-04-02T15:37:32.212Z,54.90
2023-04-02T15:40:08.230Z,55.50
2023-04-02T15:42:39.099Z,55.30
2023-04-02T15:45:11.965Z,56.80
2023-04-02T15:47:38.811Z,57.70
2023-04-02T15:50:15.813Z,58.70
2023-04-02T15:52:45.385Z,58.30
2023-04-02T15:55:30.877Z,57.10
2023-04-02T15:58:16.367Z,57.60
2023-04-02T16:01:02.277Z,58.60
2023-04-02T16:03:41.551Z,59.10
2023-04-02T16:06:10.789Z,59.00
2023-04-02T16:08:57.338Z,59.70
2023-04-02T16:11:25.341Z,59.30
2023-04-02T16:13:53.886Z,59.20
2023-04-02T16:16:23.941Z,59.40
2023-04-02T16:19:17.227Z,58.20
2023-04-02T16:22:04.296Z,58.10
2023-04-02T16:24:31.125Z,58.30
2023-04-02T16:27:07.432Z,58.10
2023-04-02T16:29:54.858Z,58.60
2023-04-02T16:32:26.661Z,58.70
2023-04-02T16:35:41.800Z,59.50
2023-04-02T16:38:13.197Z,59.80
2023-04-02T16:40:43.258Z,59.80
2023-04-02T16:43:09.935Z,60.00
2023-04-02T16:45:48.898Z,60.30
2023-04-02T16:48:28.096Z,60.80
2023-04-02T16:51:17.704Z,60.90
2023-04-02T16:54:01.030Z,60.70
2023-04-02T16:56:28.556Z,61.30
2023-04-02T16:58:58.924Z,61.40
2023-04-02T17:01:35.150Z,60.80
2023-04-02T17:04:11.272Z,60.50
2023-04-02T17:06:56.774Z,60.30
2023-04-02T17:09:39.100Z,60.00
2023-04-02T17:12:07.648Z,59.50
2023-04-02T17:14:36.241Z,58.20
2023-04-02T17:17:03.660Z,58.40
2023-04-02T17:19:31.550Z,56.80
2023-04-02T17:24:44.621Z,52.60
2023-04-02T17:27:36.757Z,52.40
2023-04-02T17:30:17.228Z,51.90
2023-04-02T17:32:44.429Z,51.60
2023-04-02T17:35:17.708Z,50.40
2023-04-02T17:37:49.200Z,50.50
2023-04-02T17:40:25.500Z,50.40
2023-04-02T17:43:11.010Z,50.50
2023-04-02T17:45:56.399Z,50.40
2023-04-02T17:48:47.414Z,50.50
2023-04-02T17:51:33.760Z,50.70
2023-04-02T17:54:37.194Z,50.60
2023-04-02T17:57:42.281Z,50.70
2023-04-02T18:00:31.003Z,50.60
2023-04-02T18:03:25.376Z,50.80
2023-04-02T18:06:25.486Z,50.60
2023-04-02T18:09:10.700Z,50.60
2023-04-02T18:11:46.138Z,50.70
2023-04-02T18:14:28.789Z,50.80
2023-04-02T18:17:04.453Z,50.60
2023-04-02T18:19:49.503Z,50.60
2023-04-02T18:23:01.829Z,51.20
2023-04-02T18:25:43.473Z,51.50
2023-04-02T18:28:47.369Z,51.60
2023-04-02T18:31:46.503Z,51.40
2023-04-02T18:34:22.536Z,52.00
2023-04-02T18:37:04.269Z,51.40
2023-04-02T18:39:46.111Z,51.60
2023-04-02T18:42:24.758Z,51.70
2023-04-02T18:45:15.735Z,51.80
2023-04-02T18:48:04.604Z,52.10
2023-04-02T18:50:34.722Z,52.20
2023-04-02T18:53:24.499Z,51.90
2023-04-02T18:56:07.352Z,51.70
2023-04-02T18:58:57.040Z,52.10
2023-04-02T19:01:39.566Z,52.30
2023-04-02T19:04:09.699Z,52.10
2023-04-02T19:06:44.999Z,52.40
2023-04-02T19:09:15.193Z,52.30
2023-04-02T19:11:42.090Z,52.40
2023-04-02T19:14:13.295Z,52.40
2023-04-02T19:16:59.055Z,52.90
2023-04-02T19:19:32.204Z,52.80
2023-04-02T19:22:01.800Z,53.20
2023-04-02T19:24:46.428Z,52.20
2023-04-02T19:27:32.507Z,52.50
2023-04-02T19:30:17.851Z,52.80
2023-04-02T19:32:56.064Z,53.40
2023-04-02T19:35:33.648Z,52.90
2023-04-02T19:38:37.620Z,53.30
2023-04-02T19:41:17.226Z,53.00
2023-04-02T19:43:44.092Z,53.40
2023-04-02T19:46:11.022Z,53.40
2023-04-02T19:48:47.161Z,53.60
2023-04-02T19:51:13.870Z,53.60
2023-04-02T19:53:41.072Z,53.80
2023-04-02T19:56:07.927Z,53.50
2023-04-02T19:58:36.184Z,53.50
2023-04-02T20:01:03.600Z,54.10
2023-04-02T20:03:31.377Z,53.40
2023-04-02T20:05:59.640Z,54.00
2023-04-02T20:08:27.091Z,54.00
2023-04-02T20:10:53.920Z,53.80
2023-04-02T20:13:20.646Z,54.30
2023-04-02T20:15:47.395Z,54.50
2023-04-02T20:18:14.147Z,55.10
2023-04-02T20:20:41.054Z,55.50
2023-04-02T20:23:07.836Z,55.50
2023-04-02T20:25:34.591Z,55.90
2023-04-02T20:28:03.709Z,55.80
2023-04-02T20:30:32.395Z,55.70
2023-04-02T20:32:59.838Z,55.70
2023-04-02T20:35:27.317Z,56.00
2023-04-02T20:37:54.079Z,55.70
2023-04-02T20:40:20.994Z,56.10
2023-04-02T20:42:47.721Z,56.00
2023-04-02T20:45:14.536Z,56.00
2023-04-02T20:47:41.426Z,55.60
2023-04-02T20:50:08.730Z,55.70
2023-04-02T20:52:35.728Z,55.90
2023-04-02T20:55:03.578Z,55.70
2023-04-02T20:57:30.852Z,55.60
2023-04-02T20:59:58.911Z,55.50
2023-04-02T21:02:25.853Z,55.50
2023-04-02T21:04:52.773Z,55.60
2023-04-02T21:07:19.678Z,55.70
2023-04-02T21:09:46.592Z,55.90
2023-04-02T21:12:13.330Z,56.20
2023-04-02T21:14:40.282Z,56.40
2023-04-02T21:17:07.788Z,56.70
2023-04-02T21:19:34.882Z,56.80
2023-04-02T21:22:01.603Z,57.00
2023-04-02T21:24:28.371Z,57.50
2023-04-02T21:26:55.402Z,57.60
2023-04-02T21:29:22.275Z,57.60
2023-04-02T21:31:50.078Z,57.50
2023-04-02T21:34:17.443Z,57.70
2023-04-02T21:36:46.918Z,57.40
2023-04-02T21:39:17.719Z,57.50
2023-04-02T21:41:46.611Z,57.80
2023-04-02T21:44:14.406Z,58.00
2023-04-02T21:46:44.429Z,58.20
2023-04-02T21:49:12.204Z,58.70
2023-04-02T21:51:39.763Z,58.60
2023-04-02T21:54:07.736Z,58.60
2023-04-02T21:56:38.611Z,59.10
2023-04-02T21:59:07.050Z,59.80
2023-04-02T22:01:37.028Z,59.20
2023-04-02T22:04:05.222Z,59.40
2023-04-02T22:06:33.160Z,59.50
2023-04-02T22:09:02.878Z,60.00
2023-04-02T22:11:35.765Z,59.70
2023-04-02T22:14:03.606Z,59.90
2023-04-02T22:16:31.130Z,60.50
2023-04-02T22:19:02.323Z,60.20
2023-04-02T22:21:31.123Z,60.80
2023-04-02T22:24:02.263Z,60.70
2023-04-02T22:26:30.478Z,60.80
2023-04-02T22:28:57.463Z,60.90
2023-04-02T22:31:25.893Z,61.10
2023-04-02T22:33:53.146Z,61.40
2023-04-02T22:36:20.929Z,62.00
2023-04-02T22:38:48.170Z,61.60
2023-04-02T22:41:17.808Z,61.80
2023-04-02T22:43:45.942Z,61.60
2023-04-02T22:46:14.864Z,61.70
2023-04-02T22:48:42.280Z,62.00
2023-04-02T22:51:11.469Z,61.90
2023-04-02T22:53:38.855Z,62.20
2023-04-02T22:56:09.532Z,62.40
2023-04-02T22:58:37.376Z,62.40
2023-04-02T23:01:11.925Z,62.40
2023-04-02T23:03:38.979Z,62.60
2023-04-02T23:06:08.014Z,62.80
2023-04-02T23:08:36.321Z,63.10
2023-04-02T23:11:04.173Z,63.90
2023-04-02T23:13:31.508Z,63.50
2023-04-02T23:15:58.248Z,63.90
2023-04-02T23:18:25.101Z,63.60
2023-04-02T23:20:51.957Z,64.20
2023-04-02T23:23:18.785Z,64.10
2023-04-02T23:25:45.657Z,64.50
2023-04-02T23:28:14.005Z,64.80
2023-04-02T23:30:44.339Z,64.70
2023-04-02T23:33:11.285Z,64.80
2023-04-02T23:35:38.142Z,65.10
2023-04-02T23:38:05.051Z,65.20
2023-04-02T23:40:31.867Z,65.10
2023-04-02T23:42:58.663Z,65.40
2023-04-02T23:45:25.679Z,65.70
2023-04-02T23:47:52.673Z,65.90
2023-04-02T23:50:19.506Z,66.10
2023-04-02T23:52:47.243Z,66.40
2023-04-02T23:55:14.249Z,66.50
2023-04-02T23:57:41.204Z,66.70
